Amherst, Colorado
Current Conditions -  °F | °C
As of 11:35 PM on Tuesday 27 Jan 2015 (Local Time) from KHEQ Reporting Station
Clear Clear  
Wind Chill:   Ceiling: Unl
Heat Index:   Visibility: 10mi
Dew Point: -1°   Wind: 6mph
Humidity: 61%   Direction: 350°N
Pressure: 29.91"   Gusts: NA
Location:  40.68°N, 102.17°W
Report Text: KHEQ 280635Z AUTO 35005KT 10SM CLR 06/M01 A2991 RMK AO2
Loading
Personal Weather Stations






























Interactive Weather Map New forecast layout! Learn more

10-Day Weather Forecast

Advertisements
Track Severe Weather on mobile